Time;durP1;ratioP1;P1;durP2;ratioP2;P2;SDS_P1;SDS_P2;PMS_P1;PMS_P2;Temp;Humidity;BMP_temperature;BMP_pressure;BME280_temperature;BME280_humidity;BME280_pressure;Samples;Min_cycle;Max_cycle;Signal;HPM_P1;HPM_P2
2022/01/07 00:00:52;;;;;;;13.05;5.30;;;4.90;99.90;;;;;;5077900;28;20039;-82
2022/01/07 00:03:18;;;;;;;13.75;5.90;;;3.60;99.90;;;;;;5078252;28;20517;-83
2022/01/07 00:05:44;;;;;;;13.07;5.28;;;3.90;99.90;;;;;;5095572;28;20124;-87
2022/01/07 00:08:10;;;;;;;16.67;6.05;;;;;;;;;;5077937;28;20404;-79
2022/01/07 00:10:37;;;;;;;22.40;6.35;;;3.90;99.90;;;;;;5095288;28;20044;-82
2022/01/07 00:13:03;;;;;;;10.50;4.55;;;6.20;99.90;;;;;;5094498;28;20054;-83
2022/01/07 00:15:28;;;;;;;14.52;5.72;;;3.80;99.90;;;;;;5095137;28;20036;-80
2022/01/07 00:17:54;;;;;;;10.18;5.13;;;3.80;99.90;;;;;;5094275;28;20081;-82
2022/01/07 00:20:20;;;;;;;11.02;5.03;;;3.70;99.90;;;;;;5095482;28;20110;-80
2022/01/07 00:22:47;;;;;;;12.15;5.63;;;3.70;99.90;;;;;;5094512;28;20573;-78
2022/01/07 00:25:14;;;;;;;11.70;5.22;;;3.60;99.90;;;;;;5094873;28;20047;-78
2022/01/07 00:27:40;;;;;;;16.85;4.53;;;;;;;;;;5095087;28;20050;-79
2022/01/07 00:30:08;;;;;;;13.43;5.25;;;3.90;99.90;;;;;;5094434;28;20073;-77
2022/01/07 00:32:35;;;;;;;18.42;5.97;;;3.70;99.90;;;;;;5093681;28;20557;-79
2022/01/07 00:35:01;;;;;;;10.30;4.70;;;4.00;99.90;;;;;;5094196;28;20119;-78
2022/01/07 00:37:26;;;;;;;12.13;5.28;;;3.60;99.90;;;;;;5095002;28;20444;-80
2022/01/07 00:39:52;;;;;;;11.10;5.70;;;3.60;99.90;;;;;;5077597;28;20071;-78
2022/01/07 00:42:18;;;;;;;14.82;6.20;;;;;;;;;;5094813;28;20548;-79
2022/01/07 00:44:44;;;;;;;13.82;5.90;;;3.50;99.90;;;;;;5094990;28;20051;-77
2022/01/07 00:47:10;;;;;;;9.85;5.00;;;;;;;;;;5094011;28;20085;-78
2022/01/07 00:49:36;;;;;;;12.55;5.28;;;;;;;;;;5077978;28;20043;-78
2022/01/07 00:52:02;;;;;;;12.20;5.00;;;3.70;99.90;;;;;;5094294;28;20085;-80
2022/01/07 00:54:28;;;;;;;14.02;5.57;;;3.60;99.90;;;;;;5094407;28;20488;-80
2022/01/07 00:56:54;;;;;;;13.60;6.32;;;3.70;99.90;;;;;;5077567;28;20465;-80
2022/01/07 00:59:20;;;;;;;13.98;5.35;;;3.60;99.90;;;;;;5094468;28;20118;-80
2022/01/07 01:01:46;;;;;;;13.00;5.80;;;;;;;;;;5094168;28;20063;-79
2022/01/07 01:04:13;;;;;;;10.18;4.95;;;;;;;;;;5077384;28;20047;-81
2022/01/07 01:06:41;;;;;;;14.40;6.07;;;3.50;99.90;;;;;;5094435;28;20051;-80
2022/01/07 01:09:08;;;;;;;12.48;6.40;;;3.50;99.90;;;;;;5094329;28;20149;-80
2022/01/07 01:11:34;;;;;;;14.52;6.43;;;3.80;99.90;;;;;;5094558;28;20044;-80
2022/01/07 01:14:00;;;;;;;12.02;5.60;;;;;;;;;;5093848;28;20549;-80
2022/01/07 01:16:26;;;;;;;12.65;6.28;;;;;;;;;;5077281;28;20044;-80
2022/01/07 01:18:52;;;;;;;15.60;6.60;;;;;;;;;;5093526;28;20040;-78
2022/01/07 01:21:18;;;;;;;11.55;6.25;;;;;;;;;;5077627;28;20050;-76
2022/01/07 01:23:45;;;;;;;13.82;6.70;;;3.50;99.90;;;;;;5094726;28;20039;-75
2022/01/07 01:26:14;;;;;;;14.35;6.88;;;3.50;99.90;;;;;;5111569;28;20543;-76
2022/01/07 01:28:40;;;;;;;16.00;6.72;;;4.20;99.90;;;;;;5077418;28;20039;-76
2022/01/07 01:31:06;;;;;;;13.98;6.68;;;3.70;99.90;;;;;;5093955;28;20048;-76
2022/01/07 01:33:32;;;;;;;13.05;8.23;;;3.40;99.90;;;;;;5093869;28;20545;-77
2022/01/07 01:35:58;;;;;;;19.27;8.43;;;3.50;99.90;;;;;;5093949;28;20044;-77
2022/01/07 01:38:27;;;;;;;13.05;7.57;;;3.50;99.90;;;;;;5077416;28;20093;-76
2022/01/07 01:40:53;;;;;;;16.83;7.57;;;3.50;99.90;;;;;;5093243;28;20507;-76
2022/01/07 01:43:19;;;;;;;13.35;7.93;;;3.50;99.90;;;;;;5094067;28;20036;-76
2022/01/07 01:45:44;;;;;;;14.98;8.25;;;3.20;99.90;;;;;;5098231;28;20112;-76
2022/01/07 01:48:10;;;;;;;13.65;7.68;;;3.60;99.90;;;;;;5080538;28;20040;-77
2022/01/07 01:50:36;;;;;;;15.00;7.70;;;3.40;99.90;;;;;;5097834;28;20040;-77
2022/01/07 01:53:02;;;;;;;14.15;7.22;;;3.40;99.90;;;;;;5097243;28;20126;-76
2022/01/07 01:55:28;;;;;;;17.08;8.40;;;3.40;99.90;;;;;;5097500;28;20540;-76
2022/01/07 01:57:55;;;;;;;15.57;8.18;;;3.40;99.90;;;;;;5097217;28;20435;-77
2022/01/07 02:00:25;;;;;;;14.85;7.47;;;4.40;99.90;;;;;;5081013;28;20035;-77
2022/01/07 02:02:51;;;;;;;15.80;8.57;;;3.40;99.90;;;;;;5097192;28;20085;-76
2022/01/07 02:05:17;;;;;;;19.73;8.95;;;3.30;99.90;;;;;;5097989;28;20039;-76
2022/01/07 02:07:43;;;;;;;13.95;7.45;;;3.40;99.90;;;;;;5081032;28;20472;-76
2022/01/07 02:10:12;;;;;;;17.13;8.02;;;3.30;99.90;;;;;;5114757;28;20049;-77
2022/01/07 02:12:38;;;;;;;16.85;8.55;;;3.30;99.90;;;;;;5080421;28;20054;-76
2022/01/07 02:15:05;;;;;;;14.73;9.45;;;3.40;99.90;;;;;;5096836;28;20043;-76
2022/01/07 02:17:31;;;;;;;18.52;9.15;;;3.40;99.90;;;;;;5080104;28;20582;-76
2022/01/07 02:19:57;;;;;;;17.20;9.30;;;3.40;99.90;;;;;;5096871;28;20071;-78
2022/01/07 02:22:24;;;;;;;16.75;8.65;;;3.40;99.90;;;;;;5096444;28;20126;-80
2022/01/07 02:24:50;;;;;;;14.93;9.75;;;3.40;99.90;;;;;;5076531;28;20518;-78
2022/01/07 02:27:17;;;;;;;19.05;9.43;;;3.40;99.90;;;;;;5110805;28;20109;-78
2022/01/07 02:29:46;;;;;;;15.30;9.02;;;3.30;99.90;;;;;;5076762;28;20101;-79
2022/01/07 02:32:12;;;;;;;17.27;9.13;;;3.30;99.90;;;;;;5076862;28;20150;-79
2022/01/07 02:34:38;;;;;;;15.02;9.80;;;3.30;99.90;;;;;;5076738;28;20055;-79
2022/01/07 02:37:04;;;;;;;15.63;10.00;;;3.30;99.90;;;;;;5093508;28;20043;-78
2022/01/07 02:39:30;;;;;;;15.23;8.05;;;3.30;99.90;;;;;;5097017;28;20047;-78
2022/01/07 02:41:56;;;;;;;16.92;9.88;;;3.30;99.90;;;;;;5096215;28;20047;-78
2022/01/07 02:44:22;;;;;;;15.70;8.57;;;;;;;;;;5097055;28;20119;-77
2022/01/07 02:46:47;;;;;;;14.60;8.27;;;3.50;99.90;;;;;;5097029;28;20043;-79
2022/01/07 02:49:16;;;;;;;13.48;9.07;;;3.30;99.90;;;;;;5114919;28;20476;-79
2022/01/07 02:51:42;;;;;;;13.98;8.98;;;3.20;99.90;;;;;;5096029;28;20044;-78
2022/01/07 02:54:08;;;;;;;13.27;8.82;;;3.10;99.90;;;;;;5130159;27;20046;-79
2022/01/07 02:56:36;;;;;;;15.63;9.18;;;3.10;99.90;;;;;;5095441;28;20122;-78
2022/01/07 02:59:05;;;;;;;13.85;9.68;;;2.90;99.90;;;;;;5078978;28;20642;-79
2022/01/07 03:01:32;;;;;;;14.38;10.15;;;3.10;99.90;;;;;;5079987;28;20054;-78
2022/01/07 03:03:58;;;;;;;13.88;8.63;;;3.20;99.90;;;;;;5095719;28;20047;-78
2022/01/07 03:06:27;;;;;;;19.40;9.82;;;3.50;99.90;;;;;;5095292;28;20051;-77
2022/01/07 03:08:53;;;;;;;19.10;10.00;;;3.10;99.90;;;;;;5075613;28;20181;-78
2022/01/07 03:11:20;;;;;;;13.95;9.30;;;3.10;99.90;;;;;;5093438;28;20471;-78
2022/01/07 03:13:46;;;;;;;14.32;9.15;;;3.20;99.90;;;;;;5109417;28;20128;-78
2022/01/07 03:16:12;;;;;;;19.27;10.45;;;3.10;99.90;;;;;;5089797;28;20036;-78
2022/01/07 03:18:39;;;;;;;15.50;9.45;;;3.00;99.90;;;;;;5078857;28;20043;-77
2022/01/07 03:21:05;;;;;;;15.68;9.95;;;;;;;;;;5078371;28;20036;-77
2022/01/07 03:23:32;;;;;;;13.30;8.90;;;3.20;99.90;;;;;;5096079;28;20459;-78
2022/01/07 03:25:57;;;;;;;17.20;9.73;;;3.60;99.90;;;;;;5095264;28;20431;-79
2022/01/07 03:28:23;;;;;;;15.13;9.68;;;3.10;99.90;;;;;;5079154;28;20031;-79
2022/01/07 03:30:49;;;;;;;15.75;10.25;;;3.10;99.90;;;;;;5095470;28;20100;-78
2022/01/07 03:33:15;;;;;;;18.48;10.15;;;3.10;99.90;;;;;;5095534;28;20055;-79
2022/01/07 03:35:42;;;;;;;15.52;10.35;;;;;;;;;;5095431;28;20040;-79
2022/01/07 03:38:07;;;;;;;16.42;10.07;;;3.20;99.90;;;;;;5095152;28;20048;-79
2022/01/07 03:40:34;;;;;;;15.52;10.35;;;3.20;99.90;;;;;;5095715;28;20052;-78
2022/01/07 03:43:00;;;;;;;17.08;11.88;;;3.40;99.90;;;;;;5094993;28;20496;-78
2022/01/07 03:45:26;;;;;;;17.70;10.63;;;3.20;99.90;;;;;;5114066;28;20035;-78
2022/01/07 03:47:52;;;;;;;14.43;10.30;;;3.30;99.90;;;;;;5078385;28;20039;-80
2022/01/07 03:50:20;;;;;;;22.15;12.25;;;3.30;99.90;;;;;;5095470;28;20242;-78
2022/01/07 03:52:48;;;;;;;18.65;11.82;;;3.30;99.90;;;;;;5093931;28;20476;-77
2022/01/07 03:55:16;;;;;;;17.35;10.77;;;3.40;99.90;;;;;;5094924;28;20040;-77
2022/01/07 03:57:42;;;;;;;19.55;10.88;;;3.40;99.90;;;;;;5095498;28;20047;-78
2022/01/07 04:00:11;;;;;;;17.02;10.15;;;3.40;99.90;;;;;;5095010;28;20298;-79
2022/01/07 04:02:37;;;;;;;17.63;10.43;;;3.40;99.90;;;;;;5095596;28;20046;-78
2022/01/07 04:05:03;;;;;;;17.75;10.07;;;3.40;99.90;;;;;;5094825;28;20040;-78
2022/01/07 04:07:31;;;;;;;17.85;10.45;;;3.50;99.90;;;;;;5094597;28;20118;-78
2022/01/07 04:09:58;;;;;;;14.65;9.88;;;3.20;99.90;;;;;;5094380;28;20043;-78
2022/01/07 04:12:24;;;;;;;15.05;10.15;;;3.40;99.90;;;;;;5129537;27;20408;-78
2022/01/07 04:14:58;;;;;;;19.33;10.65;;;3.50;99.90;;;;;;5094082;28;20047;-78
2022/01/07 04:17:23;;;;;;;18.60;9.63;;;3.40;99.90;;;;;;5094995;28;20039;-78
2022/01/07 04:19:49;;;;;;;15.65;10.27;;;3.50;99.90;;;;;;5095199;28;20446;-78
2022/01/07 04:22:15;;;;;;;14.40;10.02;;;3.60;99.90;;;;;;5094896;28;20043;-78
2022/01/07 04:24:40;;;;;;;16.17;10.73;;;3.50;99.90;;;;;;5078468;28;20076;-78
2022/01/07 04:27:06;;;;;;;14.77;9.80;;;5.90;99.90;;;;;;5077914;28;20090;-77
2022/01/07 04:29:31;;;;;;;15.20;9.85;;;6.00;99.90;;;;;;5094985;28;20516;-79
2022/01/07 04:31:57;;;;;;;15.07;9.82;;;3.70;99.90;;;;;;5094566;28;20120;-78
2022/01/07 04:34:23;;;;;;;15.68;11.63;;;3.60;99.90;;;;;;5094801;28;20066;-78
2022/01/07 04:36:48;;;;;;;15.55;9.45;;;3.60;99.90;;;;;;5077068;28;20446;-78
2022/01/07 04:39:14;;;;;;;16.02;11.05;;;4.80;99.90;;;;;;5077786;28;20039;-81
2022/01/07 04:41:39;;;;;;;17.15;10.88;;;3.60;99.90;;;;;;5095041;28;20028;-80
2022/01/07 04:44:05;;;;;;;16.08;11.18;;;3.50;99.90;;;;;;5094255;28;20484;-81
2022/01/07 04:46:31;;;;;;;19.90;11.35;;;3.60;99.90;;;;;;5094958;28;20122;-83
2022/01/07 04:48:56;;;;;;;15.30;11.05;;;3.70;99.90;;;;;;5094175;28;20075;-81
2022/01/07 04:51:22;;;;;;;15.32;10.55;;;3.90;99.90;;;;;;5094005;28;20047;-81
2022/01/07 04:53:48;;;;;;;13.75;10.65;;;3.60;99.90;;;;;;5093800;28;20044;-82
2022/01/07 04:56:13;;;;;;;15.25;10.98;;;3.70;99.90;;;;;;5094059;28;20484;-83
2022/01/07 04:58:42;;;;;;;15.50;10.30;;;4.00;99.90;;;;;;5076878;28;20119;-87
2022/01/07 05:01:08;;;;;;;14.32;11.15;;;3.60;99.90;;;;;;5094194;28;20391;-82
2022/01/07 05:03:33;;;;;;;21.85;12.82;;;5.00;99.90;;;;;;5077439;28;20047;-91
2022/01/07 05:06:13;;;;;;;19.17;10.55;;;3.60;99.90;;;;;;5093510;28;20047;-82
2022/01/07 05:08:40;;;;;;;16.20;10.77;;;3.50;99.90;;;;;;5112785;28;20036;-79
2022/01/07 05:11:05;;;;;;;19.55;12.07;;;3.70;99.90;;;;;;5077235;28;20043;-81
2022/01/07 05:13:31;;;;;;;16.50;11.20;;;3.30;99.90;;;;;;5094752;28;20039;-82
2022/01/07 05:15:58;;;;;;;17.23;11.88;;;;;;;;;;5093696;28;20118;-83
2022/01/07 05:18:23;;;;;;;18.58;12.15;;;3.70;99.90;;;;;;5094191;28;20038;-80
2022/01/07 05:20:49;;;;;;;18.02;11.75;;;3.50;99.90;;;;;;5098171;28;20035;-82
2022/01/07 05:23:15;;;;;;;15.55;11.35;;;7.00;99.90;;;;;;5089932;28;20044;-81
2022/01/07 05:25:41;;;;;;;16.85;10.85;;;3.60;99.90;;;;;;5077656;28;20038;-80
2022/01/07 05:28:06;;;;;;;16.77;10.65;;;3.70;99.90;;;;;;5094371;28;20443;-81
2022/01/07 05:30:32;;;;;;;17.63;10.75;;;3.70;99.90;;;;;;5095007;28;20409;-83
2022/01/07 05:32:58;;;;;;;15.90;11.35;;;3.70;99.90;;;;;;5078423;28;20044;-81
2022/01/07 05:35:25;;;;;;;17.63;11.60;;;3.70;99.90;;;;;;5097582;28;20167;-78
2022/01/07 05:37:52;;;;;;;19.85;12.07;;;3.70;99.90;;;;;;5078778;28;20051;-78
2022/01/07 05:40:18;;;;;;;17.70;12.15;;;;;;;;;;5077296;28;20044;-80
2022/01/07 05:42:46;;;;;;;16.58;11.50;;;;;;;;;;5077980;28;20048;-80
2022/01/07 05:45:14;;;;;;;17.27;11.27;;;;;;;;;;5077401;28;20044;-81
2022/01/07 05:47:43;;;;;;;17.17;11.68;;;;;;;;;;5077629;28;20124;-83
2022/01/07 05:50:13;;;;;;;18.02;12.15;;;;;;;;;;5094380;28;20043;-78
2022/01/07 05:52:45;;;;;;;20.48;11.15;;;;;;;;;;5080896;28;20044;-80
2022/01/07 05:55:14;;;;;;;21.50;12.50;;;;;;;;;;5097707;28;20050;-82
2022/01/07 05:57:42;;;;;;;19.25;11.60;;;;;;;;;;5081153;28;20054;-80
2022/01/07 06:00:12;;;;;;;18.88;12.55;;;;;;;;;;5097583;28;20043;-89
2022/01/07 06:02:38;;;;;;;17.58;11.38;;;;;;;;;;5098165;28;20045;-82
2022/01/07 06:05:04;;;;;;;18.80;12.63;;;;;;;;;;5096643;28;20031;-86
2022/01/07 06:07:30;;;;;;;21.05;12.45;;;;;;;;;;5097974;28;20132;-84
2022/01/07 06:09:56;;;;;;;21.23;13.98;;;;;;;;;;5097192;28;20530;-82
2022/01/07 06:12:22;;;;;;;17.65;11.70;;;;;;;;;;5097345;28;20079;-83
2022/01/07 06:14:48;;;;;;;20.25;15.00;;;;;;;;;;5097403;28;20035;-82
2022/01/07 06:17:14;;;;;;;20.13;13.00;;;;;;;;;;5080617;28;20040;-82
2022/01/07 06:19:40;;;;;;;20.63;11.95;;;;;;;;;;5097443;28;20043;-81
2022/01/07 06:22:06;;;;;;;18.77;12.95;;;;;;;;;;5096985;28;20040;-83
2022/01/07 06:24:32;;;;;;;22.73;13.27;;;;;;;;;;5080628;28;20096;-82
2022/01/07 06:26:58;;;;;;;21.75;13.13;;;;;;;;;;5080272;28;20040;-82
2022/01/07 06:29:25;;;;;;;19.95;12.27;;;;;;;;;;5097245;28;20048;-88
2022/01/07 06:31:51;;;;;;;16.85;11.93;;;;;;;;;;5095883;28;20488;-87
2022/01/07 06:34:20;;;;;;;17.10;12.48;;;;;;;;;;5079956;28;20140;-85
2022/01/07 06:36:46;;;;;;;18.60;12.82;;;;;;;;;;5096705;28;20049;-83
2022/01/07 06:39:12;;;;;;;21.33;13.02;;;;;;;;;;5080233;28;20066;-82
2022/01/07 06:41:39;;;;;;;20.95;13.55;;;;;;;;;;5096871;28;20615;-82
2022/01/07 06:44:04;;;;;;;17.60;12.38;;;4.10;99.90;;;;;;5079509;28;20040;-82
2022/01/07 06:46:30;;;;;;;17.85;12.10;;;4.00;99.90;;;;;;5096892;28;20411;-81
2022/01/07 06:48:56;;;;;;;18.02;11.90;;;4.20;99.90;;;;;;5096645;28;20391;-83
2022/01/07 06:51:21;;;;;;;19.95;14.27;;;6.40;99.90;;;;;;5097228;28;20459;-82
2022/01/07 06:53:47;;;;;;;18.70;14.20;;;;;;;;;;5096678;28;20487;-81
2022/01/07 06:56:13;;;;;;;20.73;12.88;;;;;;;;;;5096217;28;20496;-82
2022/01/07 06:58:39;;;;;;;20.55;13.68;;;;;;;;;;5079918;28;20039;-81
2022/01/07 07:01:08;;;;;;;23.02;14.43;;;4.10;99.90;;;;;;5079238;28;20036;-81
2022/01/07 07:03:35;;;;;;;17.67;13.77;;;5.00;99.90;;;;;;5096771;28;20132;-79
2022/01/07 07:06:01;;;;;;;23.75;15.02;;;5.90;99.90;;;;;;5096101;28;20039;-89
2022/01/07 07:08:28;;;;;;;21.45;14.20;;;;;;;;;;5096502;28;20450;-84
2022/01/07 07:10:54;;;;;;;21.83;15.25;;;4.30;99.90;;;;;;5079323;28;20135;-84
2022/01/07 07:13:20;;;;;;;19.85;13.73;;;4.30;99.90;;;;;;5079561;28;20127;-82
2022/01/07 07:15:46;;;;;;;21.15;14.27;;;;;;;;;;5095824;28;20040;-84
2022/01/07 07:18:13;;;;;;;18.98;13.70;;;4.80;99.90;;;;;;5096132;28;20103;-85
2022/01/07 07:20:39;;;;;;;18.98;14.48;;;;;;;;;;5096271;28;20052;-83
2022/01/07 07:23:05;;;;;;;22.45;14.23;;;;;;;;;;5095815;28;20054;-82
2022/01/07 07:25:31;;;;;;;25.45;14.13;;;4.30;99.90;;;;;;5114516;28;20421;-82
2022/01/07 07:27:57;;;;;;;21.17;15.05;;;;;;;;;;5095640;28;20070;-82
2022/01/07 07:30:22;;;;;;;20.38;13.88;;;4.30;99.90;;;;;;5095704;28;20051;-82
2022/01/07 07:32:51;;;;;;;21.23;13.75;;;4.20;99.90;;;;;;5114101;28;20044;-81
2022/01/07 07:37:46;;;;;;;19.58;14.43;;;4.30;99.90;;;;;;5095841;28;20055;-81
2022/01/07 07:40:12;;;;;;;26.45;15.30;;;4.20;99.90;;;;;;5095958;28;20043;-82
2022/01/07 07:42:39;;;;;;;21.50;15.05;;;4.30;99.90;;;;;;5095943;28;20404;-82
2022/01/07 07:45:05;;;;;;;25.30;15.25;;;4.20;99.90;;;;;;5078225;28;20042;-83
2022/01/07 07:47:34;;;;;;;21.13;15.25;;;4.30;99.90;;;;;;5079227;28;20468;-82
2022/01/07 07:49:59;;;;;;;21.30;15.45;;;4.30;99.90;;;;;;5095549;28;20110;-82
2022/01/07 07:52:25;;;;;;;18.13;13.70;;;4.30;99.90;;;;;;5096255;28;20086;-78
2022/01/07 07:54:51;;;;;;;22.92;15.85;;;;;;;;;;5095571;28;20048;-77
2022/01/07 07:57:17;;;;;;;20.33;13.48;;;4.30;99.90;;;;;;5096043;28;20396;-76
2022/01/07 07:59:43;;;;;;;22.95;15.65;;;4.30;99.90;;;;;;5095751;28;20050;-77
2022/01/07 08:02:09;;;;;;;20.77;14.93;;;4.20;99.90;;;;;;5095266;28;20039;-77
2022/01/07 08:04:37;;;;;;;26.25;16.38;;;4.10;99.90;;;;;;5095354;28;20069;-77
2022/01/07 08:07:04;;;;;;;22.40;15.68;;;4.80;99.90;;;;;;5095136;28;20079;-78
2022/01/07 08:09:34;;;;;;;23.73;14.18;;;4.30;99.90;;;;;;5095802;28;20062;-77
2022/01/07 08:12:15;;;;;;;24.02;14.85;;;4.30;99.90;;;;;;5078102;28;20039;-77
2022/01/07 08:17:25;;;;;;;24.77;14.70;;;4.20;99.90;;;;;;5095710;28;20047;-78
2022/01/07 08:19:51;;;;;;;23.20;15.02;;;5.90;99.90;;;;;;5094498;28;20126;-77
2022/01/07 08:22:17;;;;;;;21.80;14.00;;;4.30;99.90;;;;;;5078466;28;20126;-77
2022/01/07 08:24:42;;;;;;;21.35;13.45;;;4.00;99.90;;;;;;5093816;28;20088;-76
2022/01/07 08:27:08;;;;;;;35.40;15.32;;;4.30;99.90;;;;;;5095018;28;20043;-78
2022/01/07 08:29:36;;;;;;;18.35;14.65;;;4.20;99.90;;;;;;5095413;28;20499;-78
2022/01/07 08:34:53;;;;;;;23.95;15.55;;;4.20;99.90;;;;;;5117043;27;20508;-77
2022/01/07 08:37:28;;;;;;;22.00;13.98;;;3.90;99.90;;;;;;5093043;28;20412;-75
2022/01/07 08:39:55;;;;;;;22.13;14.98;;;4.30;99.90;;;;;;5093669;28;20492;-77
2022/01/07 08:42:24;;;;;;;23.85;15.18;;;4.40;99.90;;;;;;5076901;28;20158;-77
2022/01/07 08:44:52;;;;;;;30.13;15.23;;;;;;;;;;5076552;28;20131;-79
2022/01/07 08:47:22;;;;;;;18.65;12.65;;;4.30;99.90;;;;;;5088338;28;20039;-78
2022/01/07 08:49:48;;;;;;;26.42;13.88;;;4.30;99.90;;;;;;5080425;28;20134;-75
2022/01/07 08:52:14;;;;;;;21.73;13.98;;;4.50;99.90;;;;;;5092305;28;20061;-72
2022/01/07 08:54:46;;;;;;;23.70;13.65;;;4.50;99.90;;;;;;5090796;28;20043;-84
2022/01/07 08:57:11;;;;;;;23.98;15.68;;;4.20;99.90;;;;;;5075534;28;20426;-72
2022/01/07 08:59:37;;;;;;;28.85;15.52;;;4.50;99.90;;;;;;5093169;28;20047;-77
2022/01/07 09:02:03;;;;;;;24.73;15.27;;;4.50;99.90;;;;;;5090171;28;20035;-70
2022/01/07 09:04:28;;;;;;;24.92;15.10;;;4.50;99.90;;;;;;5071044;28;20077;-69
2022/01/07 09:06:54;;;;;;;23.08;14.25;;;4.30;99.90;;;;;;5071527;28;20036;-75
2022/01/07 09:09:20;;;;;;;24.60;15.05;;;4.90;99.90;;;;;;5079460;28;20493;-81
2022/01/07 09:11:46;;;;;;;26.08;13.82;;;4.80;99.90;;;;;;5107654;28;20080;-78
2022/01/07 09:14:12;;;;;;;24.45;13.88;;;4.70;99.90;;;;;;5083712;28;20769;-75
2022/01/07 09:16:37;;;;;;;27.38;14.95;;;4.50;99.90;;;;;;5071314;28;20024;-75
2022/01/07 09:19:03;;;;;;;24.25;14.38;;;4.90;99.90;;;;;;5088268;28;20051;-75
2022/01/07 09:21:29;;;;;;;27.17;15.77;;;4.30;99.90;;;;;;5087343;28;20044;-74
2022/01/07 09:23:55;;;;;;;23.65;14.18;;;;;;;;;;5091041;28;20059;-73
2022/01/07 09:26:21;;;;;;;28.35;14.30;;;4.80;99.90;;;;;;5090571;28;20126;-74
2022/01/07 09:28:46;;;;;;;21.73;14.93;;;5.00;99.90;;;;;;5091820;28;20055;-74
2022/01/07 09:31:14;;;;;;;28.52;14.95;;;4.90;99.90;;;;;;5091151;28;20468;-73
2022/01/07 09:33:39;;;;;;;25.73;14.52;;;4.90;99.90;;;;;;5073352;28;20819;-74
2022/01/07 09:36:05;;;;;;;23.35;14.23;;;4.60;99.90;;;;;;5071194;28;20052;-73
2022/01/07 09:38:31;;;;;;;25.98;15.07;;;5.10;99.90;;;;;;5087776;28;20147;-74
2022/01/07 09:40:56;;;;;;;26.63;14.10;;;4.80;99.90;;;;;;5086005;28;20071;-73
2022/01/07 09:43:22;;;;;;;20.35;13.38;;;5.00;99.90;;;;;;5088114;28;20043;-79
2022/01/07 09:45:48;;;;;;;18.52;12.50;;;5.10;99.90;;;;;;5090875;28;20518;-72
2022/01/07 09:48:14;;;;;;;22.88;11.95;;;5.00;99.90;;;;;;5074208;28;20051;-72
2022/01/07 09:50:40;;;;;;;23.23;11.70;;;4.70;99.90;;;;;;5090442;28;20381;-72
2022/01/07 09:53:15;;;;;;;19.30;10.25;;;4.70;99.90;;;;;;5073355;28;20055;-74
2022/01/07 09:55:48;;;;;;;14.50;7.95;;;5.10;99.90;;;;;;5073155;28;20418;-72
2022/01/07 09:58:14;;;;;;;14.60;8.68;;;;;;;;;;5091201;28;20050;-71
2022/01/07 10:00:44;;;;;;;14.00;8.55;;;4.90;99.90;;;;;;5090038;28;20069;-69
2022/01/07 10:03:11;;;;;;;18.52;8.07;;;5.20;99.90;;;;;;5091796;28;20039;-75
2022/01/07 10:05:45;;;;;;;14.07;8.43;;;5.00;99.90;;;;;;5093475;28;20048;-75
2022/01/07 10:08:25;;;;;;;20.52;10.63;;;4.90;99.90;;;;;;5120513;27;20533;-70
2022/01/07 10:11:16;;;;;;;19.45;9.18;;;5.10;99.90;;;;;;5089972;28;20098;-72
2022/01/07 10:14:18;;;;;;;24.08;10.25;;;4.70;99.90;;;;;;5090858;28;20512;-74
2022/01/07 10:16:55;;;;;;;21.55;11.68;;;4.90;99.90;;;;;;5093521;28;20045;-80
2022/01/07 10:19:34;;;;;;;19.15;10.93;;;4.60;99.90;;;;;;5093677;28;20106;-72
2022/01/07 10:22:06;;;;;;;22.15;11.07;;;4.80;99.90;;;;;;5075806;28;20043;-79
2022/01/07 10:24:32;;;;;;;16.55;9.07;;;4.90;99.90;;;;;;5075513;28;20060;-79
2022/01/07 10:27:13;;;;;;;14.32;8.55;;;4.90;99.90;;;;;;5090375;28;20069;-79
2022/01/07 10:29:42;;;;;;;14.80;7.18;;;4.90;99.90;;;;;;5093289;28;20051;-79
2022/01/07 10:32:26;;;;;;;13.38;6.50;;;5.30;99.90;;;;;;5085592;28;20092;-80
2022/01/07 10:35:10;;;;;;;12.00;5.50;;;5.30;99.90;;;;;;5075696;28;20047;-75
2022/01/07 10:37:45;;;;;;;13.25;5.60;;;5.50;99.90;;;;;;5090538;28;20133;-72
2022/01/07 10:40:26;;;;;;;12.77;5.35;;;5.30;99.90;;;;;;5077288;28;20051;-72
2022/01/07 10:43:18;;;;;;;13.80;5.38;;;5.10;99.90;;;;;;5095127;28;20044;-76
2022/01/07 10:45:53;;;;;;;12.10;5.97;;;5.60;99.90;;;;;;5092305;28;20046;-70
2022/01/07 10:48:22;;;;;;;12.65;6.03;;;5.50;99.90;;;;;;5093533;28;20121;-73
2022/01/07 10:50:50;;;;;;;12.18;5.72;;;5.50;99.90;;;;;;5092591;28;20047;-77
2022/01/07 10:53:25;;;;;;;12.50;6.10;;;5.10;99.90;;;;;;5093581;28;20028;-76
2022/01/07 10:55:57;;;;;;;8.83;4.97;;;5.70;99.90;;;;;;5118847;27;20043;-78
2022/01/07 10:58:22;;;;;;;16.65;5.93;;;5.50;99.90;;;;;;5076393;28;20081;-77
2022/01/07 11:00:48;;;;;;;14.35;6.30;;;5.30;99.90;;;;;;5093407;28;20039;-75
2022/01/07 11:03:14;;;;;;;13.68;7.03;;;5.40;99.90;;;;;;5094623;28;20051;-77
2022/01/07 11:05:42;;;;;;;13.75;5.85;;;7.30;99.90;;;;;;5094573;28;20059;-74
2022/01/07 11:08:07;;;;;;;20.05;7.50;;;5.60;99.90;;;;;;5092766;28;20047;-76
2022/01/07 11:10:36;;;;;;;14.45;5.63;;;5.40;99.90;;;;;;5092792;28;20044;-75
2022/01/07 11:13:02;;;;;;;11.85;5.50;;;5.50;99.90;;;;;;5076053;28;20077;-76
2022/01/07 11:15:28;;;;;;;15.43;5.72;;;5.60;99.90;;;;;;5089610;28;20044;-75
2022/01/07 11:17:54;;;;;;;14.52;6.57;;;5.60;99.90;;;;;;5088346;28;20085;-76
2022/01/07 11:20:24;;;;;;;18.35;6.15;;;5.80;99.90;;;;;;5093865;28;20496;-74
2022/01/07 11:22:50;;;;;;;14.55;6.13;;;5.80;99.90;;;;;;5094390;28;20054;-76
2022/01/07 11:25:17;;;;;;;17.25;6.90;;;6.10;99.90;;;;;;5113808;28;20047;-78
2022/01/07 11:27:57;;;;;;;14.95;5.65;;;6.10;99.90;;;;;;5095743;28;20394;-76
2022/01/07 11:30:28;;;;;;;17.27;5.47;;;6.10;99.90;;;;;;5094736;28;20046;-76
2022/01/07 11:32:54;;;;;;;16.48;6.90;;;6.40;99.90;;;;;;5090427;28;20399;-75
2022/01/07 11:35:20;;;;;;;13.27;6.03;;;6.00;99.90;;;;;;5073534;28;21477;-75
2022/01/07 11:37:51;;;;;;;12.93;5.88;;;6.20;99.90;;;;;;5096410;28;20123;-75
2022/01/07 11:40:40;;;;;;;13.38;5.85;;;7.80;99.90;;;;;;5093624;28;20047;-75
2022/01/07 11:43:24;;;;;;;18.13;6.72;;;6.00;99.90;;;;;;5110018;27;21226;-73
2022/01/07 11:45:55;;;;;;;17.63;7.85;;;6.00;99.90;;;;;;5092466;28;20043;-71
2022/01/07 11:48:25;;;;;;;20.58;7.85;;;6.20;99.90;;;;;;5092050;28;20470;-68
2022/01/07 11:51:00;;;;;;;12.85;6.80;;;5.90;99.90;;;;;;5091800;28;20514;-73
2022/01/07 11:53:47;;;;;;;17.50;7.15;;;7.40;99.90;;;;;;5091720;28;20031;-73
2022/01/07 11:56:24;;;;;;;15.93;7.28;;;5.70;99.90;;;;;;5078241;28;20055;-74
2022/01/07 11:58:55;;;;;;;12.50;6.45;;;5.50;99.90;;;;;;5093864;28;20039;-74
2022/01/07 12:01:37;;;;;;;17.90;7.18;;;6.00;99.90;;;;;;5076429;28;20092;-74
2022/01/07 12:04:15;;;;;;;10.43;4.30;;;5.40;99.90;;;;;;5093668;28;20513;-74
2022/01/07 12:06:41;;;;;;;9.52;2.85;;;5.80;99.90;;;;;;5093673;28;20087;-74
2022/01/07 12:09:11;;;;;;;9.70;3.17;;;5.60;99.90;;;;;;5092889;28;20047;-74
2022/01/07 12:11:38;;;;;;;10.48;2.97;;;5.20;99.90;;;;;;5093361;28;20048;-74
2022/01/07 12:14:10;;;;;;;11.90;3.60;;;5.40;99.90;;;;;;5075786;28;20403;-74
2022/01/07 12:16:38;;;;;;;10.63;4.15;;;5.00;99.90;;;;;;5077007;28;20149;-73
2022/01/07 12:19:35;;;;;;;12.80;3.47;;;5.50;99.90;;;;;;5091562;28;20119;-75
2022/01/07 12:22:02;;;;;;;8.98;2.25;;;5.40;99.90;;;;;;5071703;28;20040;-76
2022/01/07 12:24:30;;;;;;;12.80;3.47;;;5.60;99.90;;;;;;5075963;28;20047;-75
2022/01/07 12:27:18;;;;;;;15.65;4.38;;;5.50;99.90;;;;;;5094442;28;20079;-75
2022/01/07 12:29:46;;;;;;;15.60;4.97;;;5.50;99.90;;;;;;5094933;28;20031;-76
2022/01/07 12:32:14;;;;;;;14.95;5.55;;;5.60;99.90;;;;;;5081946;28;20384;-76
2022/01/07 12:34:43;;;;;;;14.70;6.10;;;5.60;99.90;;;;;;5064295;28;20056;-76
2022/01/07 12:37:11;;;;;;;15.98;5.93;;;5.60;99.90;;;;;;5090879;28;20044;-76
2022/01/07 12:39:40;;;;;;;17.15;6.75;;;5.70;99.90;;;;;;5085332;28;20115;-77
2022/01/07 12:42:07;;;;;;;11.27;5.70;;;5.60;99.90;;;;;;5073271;28;20115;-77
2022/01/07 12:44:46;;;;;;;9.02;4.60;;;5.70;99.90;;;;;;5083948;28;20076;-76
2022/01/07 12:47:16;;;;;;;16.02;3.22;;;5.90;99.90;;;;;;5070930;28;20048;-79
2022/01/07 12:49:44;;;;;;;7.15;2.08;;;5.80;99.90;;;;;;5091295;28;20052;-75
2022/01/07 12:52:20;;;;;;;11.00;2.30;;;5.80;99.90;;;;;;5086716;28;20059;-75
2022/01/07 12:54:52;;;;;;;7.40;2.00;;;5.60;99.90;;;;;;5103957;28;20040;-75
2022/01/07 12:57:44;;;;;;;12.73;2.67;;;6.00;99.90;;;;;;5104043;28;20043;-75
2022/01/07 13:00:12;;;;;;;5.78;2.55;;;6.00;99.90;;;;;;5104341;28;20127;-75
2022/01/07 13:02:40;;;;;;;8.70;2.20;;;6.00;99.90;;;;;;5104237;28;20147;-75
2022/01/07 13:05:37;;;;;;;7.28;1.73;;;8.50;99.90;;;;;;5104113;28;20045;-75
2022/01/07 13:08:21;;;;;;;18.45;2.58;;;6.10;99.90;;;;;;5069650;28;20053;-75
2022/01/07 13:10:48;;;;;;;7.65;2.10;;;7.20;99.90;;;;;;5103506;28;20082;-75